sensor_id;sensor_type;location;lat;lon;timestamp;P1;durP1;ratioP1;P2;durP2;ratioP2
13327;SDS011;6733;51.044;3.746;2023-04-03T00:01:40;15.40;;;10.73;;
13327;SDS011;6733;51.044;3.746;2023-04-03T00:04:07;10.83;;;9.73;;
13327;SDS011;6733;51.044;3.746;2023-04-03T00:06:33;11.50;;;10.30;;
13327;SDS011;6733;51.044;3.746;2023-04-03T00:09:00;11.50;;;9.37;;
13327;SDS011;6733;51.044;3.746;2023-04-03T00:11:27;12.50;;;9.27;;
13327;SDS011;6733;51.044;3.746;2023-04-03T00:13:53;13.53;;;8.20;;
13327;SDS011;6733;51.044;3.746;2023-04-03T00:16:19;9.87;;;8.77;;
13327;SDS011;6733;51.044;3.746;2023-04-03T00:18:46;9.43;;;8.43;;
13327;SDS011;6733;51.044;3.746;2023-04-03T00:21:13;9.47;;;7.70;;
13327;SDS011;6733;51.044;3.746;2023-04-03T00:23:40;9.37;;;8.37;;
13327;SDS011;6733;51.044;3.746;2023-04-03T00:26:06;11.87;;;7.97;;
13327;SDS011;6733;51.044;3.746;2023-04-03T00:28:32;11.60;;;8.70;;
13327;SDS011;6733;51.044;3.746;2023-04-03T00:30:58;9.73;;;7.53;;
13327;SDS011;6733;51.044;3.746;2023-04-03T00:33:24;10.30;;;8.20;;
13327;SDS011;6733;51.044;3.746;2023-04-03T00:35:50;10.30;;;8.23;;
13327;SDS011;6733;51.044;3.746;2023-04-03T00:38:17;8.47;;;7.60;;
13327;SDS011;6733;51.044;3.746;2023-04-03T00:40:45;8.90;;;8.00;;
13327;SDS011;6733;51.044;3.746;2023-04-03T00:45:44;8.23;;;7.33;;
13327;SDS011;6733;51.044;3.746;2023-04-03T00:51:13;9.57;;;8.17;;
13327;SDS011;6733;51.044;3.746;2023-04-03T00:53:49;11.00;;;7.93;;
13327;SDS011;6733;51.044;3.746;2023-04-03T00:56:19;8.93;;;7.20;;
13327;SDS011;6733;51.044;3.746;2023-04-03T00:58:51;10.23;;;7.23;;
13327;SDS011;6733;51.044;3.746;2023-04-03T01:01:22;10.53;;;7.37;;
13327;SDS011;6733;51.044;3.746;2023-04-03T01:03:51;9.37;;;7.33;;
13327;SDS011;6733;51.044;3.746;2023-04-03T01:06:28;9.07;;;7.30;;
13327;SDS011;6733;51.044;3.746;2023-04-03T01:08:58;10.30;;;6.83;;
13327;SDS011;6733;51.044;3.746;2023-04-03T01:11:25;8.87;;;7.30;;
13327;SDS011;6733;51.044;3.746;2023-04-03T01:13:52;8.23;;;7.43;;
13327;SDS011;6733;51.044;3.746;2023-04-03T01:16:19;14.17;;;7.73;;
13327;SDS011;6733;51.044;3.746;2023-04-03T01:18:45;9.87;;;7.73;;
13327;SDS011;6733;51.044;3.746;2023-04-03T01:24:11;12.27;;;7.30;;
13327;SDS011;6733;51.044;3.746;2023-04-03T01:26:49;8.10;;;7.23;;
13327;SDS011;6733;51.044;3.746;2023-04-03T01:29:16;7.90;;;7.17;;
13327;SDS011;6733;51.044;3.746;2023-04-03T01:31:55;9.10;;;7.20;;
13327;SDS011;6733;51.044;3.746;2023-04-03T01:34:23;8.10;;;7.27;;
13327;SDS011;6733;51.044;3.746;2023-04-03T01:36:50;9.30;;;6.37;;
13327;SDS011;6733;51.044;3.746;2023-04-03T01:39:17;11.43;;;7.37;;
13327;SDS011;6733;51.044;3.746;2023-04-03T01:41:44;6.90;;;6.20;;
13327;SDS011;6733;51.044;3.746;2023-04-03T01:44:11;10.23;;;7.10;;
13327;SDS011;6733;51.044;3.746;2023-04-03T01:46:37;10.47;;;7.40;;
13327;SDS011;6733;51.044;3.746;2023-04-03T01:49:03;11.43;;;6.77;;
13327;SDS011;6733;51.044;3.746;2023-04-03T01:51:30;10.23;;;6.77;;
13327;SDS011;6733;51.044;3.746;2023-04-03T01:53:56;9.67;;;7.10;;
13327;SDS011;6733;51.044;3.746;2023-04-03T01:56:23;9.43;;;7.20;;
13327;SDS011;6733;51.044;3.746;2023-04-03T01:58:49;9.47;;;6.53;;
13327;SDS011;6733;51.044;3.746;2023-04-03T02:01:15;8.00;;;7.20;;
13327;SDS011;6733;51.044;3.746;2023-04-03T02:03:41;9.07;;;6.97;;
13327;SDS011;6733;51.044;3.746;2023-04-03T02:06:08;8.97;;;7.50;;
13327;SDS011;6733;51.044;3.746;2023-04-03T02:08:34;7.70;;;6.47;;
13327;SDS011;6733;51.044;3.746;2023-04-03T02:11:00;8.03;;;6.57;;
13327;SDS011;6733;51.044;3.746;2023-04-03T02:13:26;10.37;;;7.40;;
13327;SDS011;6733;51.044;3.746;2023-04-03T02:15:52;8.23;;;6.77;;
13327;SDS011;6733;51.044;3.746;2023-04-03T02:18:18;10.37;;;7.77;;
13327;SDS011;6733;51.044;3.746;2023-04-03T02:20:46;8.00;;;6.87;;
13327;SDS011;6733;51.044;3.746;2023-04-03T02:23:12;8.03;;;7.03;;
13327;SDS011;6733;51.044;3.746;2023-04-03T02:25:38;8.17;;;6.57;;
13327;SDS011;6733;51.044;3.746;2023-04-03T02:28:05;9.07;;;7.10;;
13327;SDS011;6733;51.044;3.746;2023-04-03T02:30:31;9.93;;;6.73;;
13327;SDS011;6733;51.044;3.746;2023-04-03T02:33:22;8.10;;;6.70;;
13327;SDS011;6733;51.044;3.746;2023-04-03T02:36:14;7.87;;;6.90;;
13327;SDS011;6733;51.044;3.746;2023-04-03T02:39:05;9.77;;;6.70;;
13327;SDS011;6733;51.044;3.746;2023-04-03T02:41:55;10.43;;;7.10;;
13327;SDS011;6733;51.044;3.746;2023-04-03T02:44:22;10.00;;;6.97;;
13327;SDS011;6733;51.044;3.746;2023-04-03T02:46:49;8.90;;;7.00;;
13327;SDS011;6733;51.044;3.746;2023-04-03T02:49:15;9.47;;;8.10;;
13327;SDS011;6733;51.044;3.746;2023-04-03T02:51:41;8.83;;;6.70;;
13327;SDS011;6733;51.044;3.746;2023-04-03T02:54:08;10.47;;;7.23;;
13327;SDS011;6733;51.044;3.746;2023-04-03T02:56:34;9.40;;;7.57;;
13327;SDS011;6733;51.044;3.746;2023-04-03T02:59:00;8.77;;;7.50;;
13327;SDS011;6733;51.044;3.746;2023-04-03T03:01:27;7.30;;;6.60;;
13327;SDS011;6733;51.044;3.746;2023-04-03T03:03:57;8.43;;;7.40;;
13327;SDS011;6733;51.044;3.746;2023-04-03T03:06:23;11.93;;;6.83;;
13327;SDS011;6733;51.044;3.746;2023-04-03T03:08:50;7.60;;;6.90;;
13327;SDS011;6733;51.044;3.746;2023-04-03T03:11:16;9.63;;;7.40;;
13327;SDS011;6733;51.044;3.746;2023-04-03T03:13:42;9.77;;;7.83;;
13327;SDS011;6733;51.044;3.746;2023-04-03T03:16:08;10.47;;;7.00;;
13327;SDS011;6733;51.044;3.746;2023-04-03T03:18:35;9.67;;;7.10;;
13327;SDS011;6733;51.044;3.746;2023-04-03T03:21:01;9.47;;;7.23;;
13327;SDS011;6733;51.044;3.746;2023-04-03T03:23:28;7.83;;;7.03;;
13327;SDS011;6733;51.044;3.746;2023-04-03T03:25:57;9.17;;;8.17;;
13327;SDS011;6733;51.044;3.746;2023-04-03T03:28:25;9.77;;;7.90;;
13327;SDS011;6733;51.044;3.746;2023-04-03T03:30:52;9.37;;;6.53;;
13327;SDS011;6733;51.044;3.746;2023-04-03T03:33:18;8.37;;;7.43;;
13327;SDS011;6733;51.044;3.746;2023-04-03T03:35:45;10.17;;;7.43;;
13327;SDS011;6733;51.044;3.746;2023-04-03T03:38:11;9.43;;;7.60;;
13327;SDS011;6733;51.044;3.746;2023-04-03T03:40:37;11.47;;;8.70;;
13327;SDS011;6733;51.044;3.746;2023-04-03T03:43:03;8.87;;;7.97;;
13327;SDS011;6733;51.044;3.746;2023-04-03T03:45:30;9.30;;;7.97;;
13327;SDS011;6733;51.044;3.746;2023-04-03T03:47:56;8.73;;;7.47;;
13327;SDS011;6733;51.044;3.746;2023-04-03T03:50:23;12.37;;;7.30;;
13327;SDS011;6733;51.044;3.746;2023-04-03T03:52:49;9.27;;;7.47;;
13327;SDS011;6733;51.044;3.746;2023-04-03T03:55:15;8.80;;;7.03;;
13327;SDS011;6733;51.044;3.746;2023-04-03T03:57:41;8.07;;;7.20;;
13327;SDS011;6733;51.044;3.746;2023-04-03T04:00:07;9.50;;;6.70;;
13327;SDS011;6733;51.044;3.746;2023-04-03T04:02:34;11.17;;;7.47;;
13327;SDS011;6733;51.044;3.746;2023-04-03T04:05:00;8.13;;;6.77;;
13327;SDS011;6733;51.044;3.746;2023-04-03T04:07:26;9.90;;;7.00;;
13327;SDS011;6733;51.044;3.746;2023-04-03T04:09:54;7.93;;;7.13;;
13327;SDS011;6733;51.044;3.746;2023-04-03T04:12:21;8.03;;;6.93;;
13327;SDS011;6733;51.044;3.746;2023-04-03T04:14:47;11.17;;;7.00;;
13327;SDS011;6733;51.044;3.746;2023-04-03T04:17:13;8.47;;;6.83;;
13327;SDS011;6733;51.044;3.746;2023-04-03T04:19:40;7.87;;;6.77;;
13327;SDS011;6733;51.044;3.746;2023-04-03T04:22:06;8.77;;;6.97;;
13327;SDS011;6733;51.044;3.746;2023-04-03T04:24:32;9.87;;;7.67;;
13327;SDS011;6733;51.044;3.746;2023-04-03T04:26:58;7.90;;;7.10;;
13327;SDS011;6733;51.044;3.746;2023-04-03T04:29:24;10.07;;;6.93;;
13327;SDS011;6733;51.044;3.746;2023-04-03T04:31:50;8.17;;;6.80;;
13327;SDS011;6733;51.044;3.746;2023-04-03T04:34:17;10.47;;;6.83;;
13327;SDS011;6733;51.044;3.746;2023-04-03T04:36:43;7.80;;;7.00;;
13327;SDS011;6733;51.044;3.746;2023-04-03T04:39:09;9.63;;;7.00;;
13327;SDS011;6733;51.044;3.746;2023-04-03T04:41:35;8.13;;;7.33;;
13327;SDS011;6733;51.044;3.746;2023-04-03T04:44:01;10.23;;;7.10;;
13327;SDS011;6733;51.044;3.746;2023-04-03T04:46:28;8.47;;;7.67;;
13327;SDS011;6733;51.044;3.746;2023-04-03T04:48:54;9.00;;;7.90;;
13327;SDS011;6733;51.044;3.746;2023-04-03T04:51:20;9.83;;;8.17;;
13327;SDS011;6733;51.044;3.746;2023-04-03T04:53:46;9.27;;;8.07;;
13327;SDS011;6733;51.044;3.746;2023-04-03T04:56:12;12.33;;;7.90;;
13327;SDS011;6733;51.044;3.746;2023-04-03T04:58:38;9.30;;;8.20;;
13327;SDS011;6733;51.044;3.746;2023-04-03T05:01:05;8.87;;;7.97;;
13327;SDS011;6733;51.044;3.746;2023-04-03T05:03:33;11.67;;;8.13;;
13327;SDS011;6733;51.044;3.746;2023-04-03T05:05:59;10.90;;;7.83;;
13327;SDS011;6733;51.044;3.746;2023-04-03T05:08:26;10.23;;;8.27;;
13327;SDS011;6733;51.044;3.746;2023-04-03T05:10:52;9.90;;;8.00;;
13327;SDS011;6733;51.044;3.746;2023-04-03T05:13:19;9.60;;;8.20;;
13327;SDS011;6733;51.044;3.746;2023-04-03T05:15:45;8.40;;;7.17;;
13327;SDS011;6733;51.044;3.746;2023-04-03T05:18:12;8.83;;;7.73;;
13327;SDS011;6733;51.044;3.746;2023-04-03T05:20:39;10.40;;;8.10;;
13327;SDS011;6733;51.044;3.746;2023-04-03T05:23:05;8.53;;;7.60;;
13327;SDS011;6733;51.044;3.746;2023-04-03T05:25:31;10.53;;;8.10;;
13327;SDS011;6733;51.044;3.746;2023-04-03T05:27:57;8.23;;;7.10;;
13327;SDS011;6733;51.044;3.746;2023-04-03T05:30:24;9.77;;;7.93;;
13327;SDS011;6733;51.044;3.746;2023-04-03T05:32:50;10.33;;;8.60;;
13327;SDS011;6733;51.044;3.746;2023-04-03T05:35:16;9.07;;;8.17;;
13327;SDS011;6733;51.044;3.746;2023-04-03T05:37:42;11.80;;;8.90;;
13327;SDS011;6733;51.044;3.746;2023-04-03T05:40:09;10.20;;;8.60;;
13327;SDS011;6733;51.044;3.746;2023-04-03T05:42:35;10.37;;;9.17;;
13327;SDS011;6733;51.044;3.746;2023-04-03T05:45:01;9.43;;;8.53;;
13327;SDS011;6733;51.044;3.746;2023-04-03T05:47:28;10.30;;;8.33;;
13327;SDS011;6733;51.044;3.746;2023-04-03T05:49:54;13.23;;;9.80;;
13327;SDS011;6733;51.044;3.746;2023-04-03T05:54:48;10.50;;;9.20;;
13327;SDS011;6733;51.044;3.746;2023-04-03T05:57:15;11.30;;;8.40;;
13327;SDS011;6733;51.044;3.746;2023-04-03T05:59:42;12.87;;;9.17;;
13327;SDS011;6733;51.044;3.746;2023-04-03T06:02:19;12.57;;;8.90;;
13327;SDS011;6733;51.044;3.746;2023-04-03T06:04:46;11.73;;;9.77;;
13327;SDS011;6733;51.044;3.746;2023-04-03T06:07:14;11.90;;;9.40;;
13327;SDS011;6733;51.044;3.746;2023-04-03T06:09:42;11.73;;;10.40;;
13327;SDS011;6733;51.044;3.746;2023-04-03T06:12:09;10.87;;;9.77;;
13327;SDS011;6733;51.044;3.746;2023-04-03T06:14:36;11.27;;;9.70;;
13327;SDS011;6733;51.044;3.746;2023-04-03T06:17:02;10.90;;;9.50;;
13327;SDS011;6733;51.044;3.746;2023-04-03T06:19:28;11.63;;;9.17;;
13327;SDS011;6733;51.044;3.746;2023-04-03T06:21:55;14.40;;;9.50;;
13327;SDS011;6733;51.044;3.746;2023-04-03T06:24:21;15.80;;;9.40;;
13327;SDS011;6733;51.044;3.746;2023-04-03T06:26:49;14.37;;;10.30;;
13327;SDS011;6733;51.044;3.746;2023-04-03T06:29:17;10.27;;;9.27;;
13327;SDS011;6733;51.044;3.746;2023-04-03T06:31:44;9.83;;;8.60;;
13327;SDS011;6733;51.044;3.746;2023-04-03T06:34:12;12.30;;;9.17;;
13327;SDS011;6733;51.044;3.746;2023-04-03T06:36:39;13.20;;;9.50;;
13327;SDS011;6733;51.044;3.746;2023-04-03T06:39:05;20.47;;;10.07;;
13327;SDS011;6733;51.044;3.746;2023-04-03T06:41:32;12.67;;;9.50;;
13327;SDS011;6733;51.044;3.746;2023-04-03T06:43:58;11.73;;;9.13;;
13327;SDS011;6733;51.044;3.746;2023-04-03T06:46:25;10.63;;;9.13;;
13327;SDS011;6733;51.044;3.746;2023-04-03T06:48:52;14.97;;;9.70;;
13327;SDS011;6733;51.044;3.746;2023-04-03T06:51:20;13.47;;;9.40;;
13327;SDS011;6733;51.044;3.746;2023-04-03T06:53:48;12.03;;;9.13;;
13327;SDS011;6733;51.044;3.746;2023-04-03T06:56:16;12.90;;;10.33;;
13327;SDS011;6733;51.044;3.746;2023-04-03T06:58:42;13.83;;;9.93;;
13327;SDS011;6733;51.044;3.746;2023-04-03T07:01:09;11.63;;;8.43;;
13327;SDS011;6733;51.044;3.746;2023-04-03T07:03:37;12.37;;;8.57;;
13327;SDS011;6733;51.044;3.746;2023-04-03T07:06:04;14.33;;;8.53;;
13327;SDS011;6733;51.044;3.746;2023-04-03T07:08:33;11.77;;;8.57;;
13327;SDS011;6733;51.044;3.746;2023-04-03T07:10:59;11.40;;;9.10;;
13327;SDS011;6733;51.044;3.746;2023-04-03T07:13:26;11.40;;;8.63;;
13327;SDS011;6733;51.044;3.746;2023-04-03T07:15:52;9.73;;;8.73;;
13327;SDS011;6733;51.044;3.746;2023-04-03T07:18:18;13.57;;;9.20;;
13327;SDS011;6733;51.044;3.746;2023-04-03T07:20:44;14.53;;;8.70;;
13327;SDS011;6733;51.044;3.746;2023-04-03T07:23:11;12.80;;;9.07;;
13327;SDS011;6733;51.044;3.746;2023-04-03T07:25:41;10.33;;;8.10;;
13327;SDS011;6733;51.044;3.746;2023-04-03T07:28:12;11.03;;;7.90;;
13327;SDS011;6733;51.044;3.746;2023-04-03T07:30:45;11.23;;;8.27;;
13327;SDS011;6733;51.044;3.746;2023-04-03T07:33:16;9.37;;;8.37;;
13327;SDS011;6733;51.044;3.746;2023-04-03T07:35:44;9.97;;;8.70;;
13327;SDS011;6733;51.044;3.746;2023-04-03T07:38:11;12.73;;;9.17;;
13327;SDS011;6733;51.044;3.746;2023-04-03T07:40:37;10.43;;;8.60;;
13327;SDS011;6733;51.044;3.746;2023-04-03T07:43:04;10.80;;;9.17;;
13327;SDS011;6733;51.044;3.746;2023-04-03T07:45:32;9.70;;;8.63;;
13327;SDS011;6733;51.044;3.746;2023-04-03T07:48:00;12.43;;;8.43;;
13327;SDS011;6733;51.044;3.746;2023-04-03T07:50:27;10.77;;;8.93;;
13327;SDS011;6733;51.044;3.746;2023-04-03T07:52:53;12.70;;;8.67;;
13327;SDS011;6733;51.044;3.746;2023-04-03T07:55:21;10.47;;;8.17;;
13327;SDS011;6733;51.044;3.746;2023-04-03T07:57:48;10.83;;;8.73;;
13327;SDS011;6733;51.044;3.746;2023-04-03T08:00:14;12.20;;;8.60;;
13327;SDS011;6733;51.044;3.746;2023-04-03T08:02:43;10.30;;;9.23;;
13327;SDS011;6733;51.044;3.746;2023-04-03T08:05:10;12.53;;;9.03;;
13327;SDS011;6733;51.044;3.746;2023-04-03T08:07:37;10.30;;;8.80;;
13327;SDS011;6733;51.044;3.746;2023-04-03T08:10:03;9.50;;;8.53;;
13327;SDS011;6733;51.044;3.746;2023-04-03T08:12:30;9.83;;;8.80;;
13327;SDS011;6733;51.044;3.746;2023-04-03T08:14:59;11.23;;;9.27;;
13327;SDS011;6733;51.044;3.746;2023-04-03T08:17:25;12.93;;;9.10;;
13327;SDS011;6733;51.044;3.746;2023-04-03T08:19:52;15.73;;;9.60;;
13327;SDS011;6733;51.044;3.746;2023-04-03T08:22:18;12.57;;;9.27;;
13327;SDS011;6733;51.044;3.746;2023-04-03T08:24:45;10.40;;;8.97;;
13327;SDS011;6733;51.044;3.746;2023-04-03T08:27:12;10.40;;;8.47;;
13327;SDS011;6733;51.044;3.746;2023-04-03T08:29:39;10.77;;;8.13;;
13327;SDS011;6733;51.044;3.746;2023-04-03T08:32:05;11.90;;;8.87;;
13327;SDS011;6733;51.044;3.746;2023-04-03T08:34:31;10.90;;;8.73;;
13327;SDS011;6733;51.044;3.746;2023-04-03T08:37:00;10.73;;;9.00;;
13327;SDS011;6733;51.044;3.746;2023-04-03T08:39:27;11.37;;;8.17;;
13327;SDS011;6733;51.044;3.746;2023-04-03T08:41:54;8.27;;;7.47;;
13327;SDS011;6733;51.044;3.746;2023-04-03T08:49:21;7.10;;;5.60;;
13327;SDS011;6733;51.044;3.746;2023-04-03T08:52:13;7.63;;;5.07;;
13327;SDS011;6733;51.044;3.746;2023-04-03T08:54:53;6.37;;;4.60;;
13327;SDS011;6733;51.044;3.746;2023-04-03T08:57:36;7.47;;;4.17;;
13327;SDS011;6733;51.044;3.746;2023-04-03T09:00:07;4.47;;;3.87;;
13327;SDS011;6733;51.044;3.746;2023-04-03T09:02:43;5.47;;;4.03;;
13327;SDS011;6733;51.044;3.746;2023-04-03T09:05:13;6.47;;;4.60;;
13327;SDS011;6733;51.044;3.746;2023-04-03T09:07:49;5.83;;;4.10;;
13327;SDS011;6733;51.044;3.746;2023-04-03T09:10:43;6.37;;;4.57;;
13327;SDS011;6733;51.044;3.746;2023-04-03T09:15:48;8.00;;;4.47;;
13327;SDS011;6733;51.044;3.746;2023-04-03T09:18:16;6.57;;;4.87;;
13327;SDS011;6733;51.044;3.746;2023-04-03T09:23:24;6.33;;;3.70;;
13327;SDS011;6733;51.044;3.746;2023-04-03T09:25:56;6.00;;;4.13;;
13327;SDS011;6733;51.044;3.746;2023-04-03T09:28:29;9.93;;;4.27;;
13327;SDS011;6733;51.044;3.746;2023-04-03T09:30:57;4.93;;;4.10;;
13327;SDS011;6733;51.044;3.746;2023-04-03T09:33:25;4.70;;;3.63;;
13327;SDS011;6733;51.044;3.746;2023-04-03T09:35:52;6.53;;;3.80;;
13327;SDS011;6733;51.044;3.746;2023-04-03T09:38:21;6.33;;;3.77;;
13327;SDS011;6733;51.044;3.746;2023-04-03T09:40:49;5.53;;;3.93;;
13327;SDS011;6733;51.044;3.746;2023-04-03T09:43:30;4.40;;;3.87;;
13327;SDS011;6733;51.044;3.746;2023-04-03T09:46:24;12.73;;;4.73;;
13327;SDS011;6733;51.044;3.746;2023-04-03T09:48:57;5.37;;;3.60;;
13327;SDS011;6733;51.044;3.746;2023-04-03T09:51:29;4.00;;;2.80;;
13327;SDS011;6733;51.044;3.746;2023-04-03T09:53:56;6.57;;;3.30;;
13327;SDS011;6733;51.044;3.746;2023-04-03T10:01:33;7.00;;;5.47;;
13327;SDS011;6733;51.044;3.746;2023-04-03T10:04:05;4.43;;;4.03;;
13327;SDS011;6733;51.044;3.746;2023-04-03T10:06:46;4.87;;;3.60;;
13327;SDS011;6733;51.044;3.746;2023-04-03T10:09:28;5.77;;;3.83;;
13327;SDS011;6733;51.044;3.746;2023-04-03T10:12:09;4.80;;;3.83;;
13327;SDS011;6733;51.044;3.746;2023-04-03T10:14:39;8.33;;;4.13;;
13327;SDS011;6733;51.044;3.746;2023-04-03T10:25:44;4.90;;;2.90;;
13327;SDS011;6733;51.044;3.746;2023-04-03T10:41:56;4.93;;;3.13;;
13327;SDS011;6733;51.044;3.746;2023-04-03T10:44:31;4.43;;;2.97;;
13327;SDS011;6733;51.044;3.746;2023-04-03T10:58:16;3.77;;;2.60;;
13327;SDS011;6733;51.044;3.746;2023-04-03T11:00:53;4.33;;;2.53;;
13327;SDS011;6733;51.044;3.746;2023-04-03T11:03:26;5.97;;;2.90;;
13327;SDS011;6733;51.044;3.746;2023-04-03T11:06:02;4.67;;;2.60;;
13327;SDS011;6733;51.044;3.746;2023-04-03T11:11:20;4.80;;;2.80;;
13327;SDS011;6733;51.044;3.746;2023-04-03T11:13:52;3.80;;;2.53;;
13327;SDS011;6733;51.044;3.746;2023-04-03T11:16:42;3.13;;;2.27;;
13327;SDS011;6733;51.044;3.746;2023-04-03T11:19:24;3.73;;;2.50;;
13327;SDS011;6733;51.044;3.746;2023-04-03T11:22:21;5.27;;;2.83;;
13327;SDS011;6733;51.044;3.746;2023-04-03T11:27:56;4.70;;;2.80;;
13327;SDS011;6733;51.044;3.746;2023-04-03T11:36:29;4.67;;;2.17;;
13327;SDS011;6733;51.044;3.746;2023-04-03T11:39:00;4.90;;;2.17;;
13327;SDS011;6733;51.044;3.746;2023-04-03T11:41:32;5.27;;;2.23;;
13327;SDS011;6733;51.044;3.746;2023-04-03T11:44:03;2.37;;;1.87;;
13327;SDS011;6733;51.044;3.746;2023-04-03T11:46:52;3.50;;;1.90;;
13327;SDS011;6733;51.044;3.746;2023-04-03T11:58:11;1.97;;;1.77;;
13327;SDS011;6733;51.044;3.746;2023-04-03T12:00:58;2.10;;;1.70;;
13327;SDS011;6733;51.044;3.746;2023-04-03T12:03:35;2.43;;;1.60;;
13327;SDS011;6733;51.044;3.746;2023-04-03T12:09:01;3.33;;;2.00;;
13327;SDS011;6733;51.044;3.746;2023-04-03T12:11:29;2.63;;;2.03;;
13327;SDS011;6733;51.044;3.746;2023-04-03T12:16:26;3.70;;;2.30;;
13327;SDS011;6733;51.044;3.746;2023-04-03T12:26:44;4.43;;;2.37;;
13327;SDS011;6733;51.044;3.746;2023-04-03T12:29:38;3.87;;;1.93;;
13327;SDS011;6733;51.044;3.746;2023-04-03T12:35:03;3.60;;;1.83;;
13327;SDS011;6733;51.044;3.746;2023-04-03T12:48:28;3.33;;;2.17;;
13327;SDS011;6733;51.044;3.746;2023-04-03T12:50:56;2.50;;;2.00;;
13327;SDS011;6733;51.044;3.746;2023-04-03T12:53:27;4.10;;;2.10;;
13327;SDS011;6733;51.044;3.746;2023-04-03T12:56:19;6.20;;;2.80;;
13327;SDS011;6733;51.044;3.746;2023-04-03T12:58:49;2.30;;;2.00;;
13327;SDS011;6733;51.044;3.746;2023-04-03T13:01:20;3.20;;;2.10;;
13327;SDS011;6733;51.044;3.746;2023-04-03T13:03:50;5.00;;;2.40;;
13327;SDS011;6733;51.044;3.746;2023-04-03T13:06:21;3.00;;;1.90;;
13327;SDS011;6733;51.044;3.746;2023-04-03T13:08:52;3.33;;;2.00;;
13327;SDS011;6733;51.044;3.746;2023-04-03T13:11:22;4.60;;;2.10;;
13327;SDS011;6733;51.044;3.746;2023-04-03T13:13:54;2.17;;;1.67;;
13327;SDS011;6733;51.044;3.746;2023-04-03T13:16:22;2.70;;;2.00;;
13327;SDS011;6733;51.044;3.746;2023-04-03T13:18:52;4.67;;;2.07;;
13327;SDS011;6733;51.044;3.746;2023-04-03T13:21:29;3.60;;;2.20;;
13327;SDS011;6733;51.044;3.746;2023-04-03T13:23:58;2.30;;;1.80;;
13327;SDS011;6733;51.044;3.746;2023-04-03T13:26:28;2.40;;;1.87;;
13327;SDS011;6733;51.044;3.746;2023-04-03T13:28:59;14.17;;;10.60;;
13327;SDS011;6733;51.044;3.746;2023-04-03T13:31:32;6.60;;;5.40;;
13327;SDS011;6733;51.044;3.746;2023-04-03T13:36:41;2.40;;;2.10;;
13327;SDS011;6733;51.044;3.746;2023-04-03T13:39:29;2.53;;;2.17;;
13327;SDS011;6733;51.044;3.746;2023-04-03T13:41:56;3.53;;;2.00;;
13327;SDS011;6733;51.044;3.746;2023-04-03T13:44:31;2.87;;;1.73;;
13327;SDS011;6733;51.044;3.746;2023-04-03T13:47:22;3.27;;;1.83;;
13327;SDS011;6733;51.044;3.746;2023-04-03T13:50:02;2.00;;;1.63;;
13327;SDS011;6733;51.044;3.746;2023-04-03T13:52:43;4.20;;;3.80;;
13327;SDS011;6733;51.044;3.746;2023-04-03T13:55:37;3.40;;;3.07;;
13327;SDS011;6733;51.044;3.746;2023-04-03T13:58:23;2.60;;;2.13;;
13327;SDS011;6733;51.044;3.746;2023-04-03T14:03:58;4.20;;;1.90;;
13327;SDS011;6733;51.044;3.746;2023-04-03T14:06:35;2.23;;;1.70;;
13327;SDS011;6733;51.044;3.746;2023-04-03T14:09:01;2.20;;;1.50;;
13327;SDS011;6733;51.044;3.746;2023-04-03T14:11:29;2.70;;;2.00;;
13327;SDS011;6733;51.044;3.746;2023-04-03T14:13:57;2.93;;;1.50;;
13327;SDS011;6733;51.044;3.746;2023-04-03T14:16:27;2.73;;;1.80;;
13327;SDS011;6733;51.044;3.746;2023-04-03T14:18:57;3.90;;;1.90;;
13327;SDS011;6733;51.044;3.746;2023-04-03T14:21:23;3.13;;;1.90;;
13327;SDS011;6733;51.044;3.746;2023-04-03T14:23:49;2.47;;;1.90;;
13327;SDS011;6733;51.044;3.746;2023-04-03T14:26:17;3.80;;;1.70;;
13327;SDS011;6733;51.044;3.746;2023-04-03T14:28:46;3.90;;;2.93;;
13327;SDS011;6733;51.044;3.746;2023-04-03T14:31:15;4.13;;;3.47;;
13327;SDS011;6733;51.044;3.746;2023-04-03T14:33:43;9.43;;;6.07;;
13327;SDS011;6733;51.044;3.746;2023-04-03T14:36:14;9.10;;;6.27;;
13327;SDS011;6733;51.044;3.746;2023-04-03T14:38:51;8.43;;;3.87;;
13327;SDS011;6733;51.044;3.746;2023-04-03T14:41:19;13.37;;;6.77;;
13327;SDS011;6733;51.044;3.746;2023-04-03T14:43:46;4.90;;;3.73;;
13327;SDS011;6733;51.044;3.746;2023-04-03T14:46:17;4.93;;;2.00;;
13327;SDS011;6733;51.044;3.746;2023-04-03T14:49:05;3.77;;;2.60;;
13327;SDS011;6733;51.044;3.746;2023-04-03T14:51:39;3.03;;;1.80;;
13327;SDS011;6733;51.044;3.746;2023-04-03T14:54:09;3.67;;;1.70;;
13327;SDS011;6733;51.044;3.746;2023-04-03T14:56:42;3.53;;;2.10;;
13327;SDS011;6733;51.044;3.746;2023-04-03T14:59:11;3.37;;;2.00;;
13327;SDS011;6733;51.044;3.746;2023-04-03T15:01:39;2.43;;;1.93;;
13327;SDS011;6733;51.044;3.746;2023-04-03T15:07:00;2.20;;;1.87;;
13327;SDS011;6733;51.044;3.746;2023-04-03T15:09:27;3.03;;;1.77;;
13327;SDS011;6733;51.044;3.746;2023-04-03T15:11:54;3.77;;;2.10;;
13327;SDS011;6733;51.044;3.746;2023-04-03T15:14:21;2.43;;;2.00;;
13327;SDS011;6733;51.044;3.746;2023-04-03T15:16:49;3.97;;;1.70;;
13327;SDS011;6733;51.044;3.746;2023-04-03T15:19:16;3.40;;;2.17;;
13327;SDS011;6733;51.044;3.746;2023-04-03T15:21:43;2.63;;;1.80;;
13327;SDS011;6733;51.044;3.746;2023-04-03T15:24:09;3.97;;;2.10;;
13327;SDS011;6733;51.044;3.746;2023-04-03T15:26:36;4.43;;;1.90;;
13327;SDS011;6733;51.044;3.746;2023-04-03T15:29:03;4.00;;;1.87;;
13327;SDS011;6733;51.044;3.746;2023-04-03T15:31:30;2.30;;;2.00;;
13327;SDS011;6733;51.044;3.746;2023-04-03T15:33:56;3.87;;;1.80;;
13327;SDS011;6733;51.044;3.746;2023-04-03T15:36:23;3.20;;;2.10;;
13327;SDS011;6733;51.044;3.746;2023-04-03T15:38:49;2.50;;;1.63;;
13327;SDS011;6733;51.044;3.746;2023-04-03T15:41:15;7.63;;;4.13;;
13327;SDS011;6733;51.044;3.746;2023-04-03T15:43:41;3.37;;;1.80;;
13327;SDS011;6733;51.044;3.746;2023-04-03T15:46:07;3.57;;;1.90;;
13327;SDS011;6733;51.044;3.746;2023-04-03T15:48:34;2.50;;;1.83;;
13327;SDS011;6733;51.044;3.746;2023-04-03T15:51:01;2.30;;;2.10;;
13327;SDS011;6733;51.044;3.746;2023-04-03T15:53:27;2.37;;;1.83;;
13327;SDS011;6733;51.044;3.746;2023-04-03T15:55:54;3.73;;;1.87;;
13327;SDS011;6733;51.044;3.746;2023-04-03T15:58:20;2.90;;;2.30;;
13327;SDS011;6733;51.044;3.746;2023-04-03T16:00:46;3.57;;;3.23;;
13327;SDS011;6733;51.044;3.746;2023-04-03T16:03:15;4.87;;;4.03;;
13327;SDS011;6733;51.044;3.746;2023-04-03T16:05:43;6.80;;;2.53;;
13327;SDS011;6733;51.044;3.746;2023-04-03T16:08:10;5.50;;;2.30;;
13327;SDS011;6733;51.044;3.746;2023-04-03T16:10:37;2.83;;;1.83;;
13327;SDS011;6733;51.044;3.746;2023-04-03T16:13:05;4.40;;;2.70;;
13327;SDS011;6733;51.044;3.746;2023-04-03T16:15:32;3.53;;;1.90;;
13327;SDS011;6733;51.044;3.746;2023-04-03T16:18:01;2.57;;;1.80;;
13327;SDS011;6733;51.044;3.746;2023-04-03T16:20:27;4.07;;;1.60;;
13327;SDS011;6733;51.044;3.746;2023-04-03T16:22:55;3.47;;;2.00;;
13327;SDS011;6733;51.044;3.746;2023-04-03T16:25:23;2.80;;;2.00;;
13327;SDS011;6733;51.044;3.746;2023-04-03T16:27:51;3.37;;;1.70;;
13327;SDS011;6733;51.044;3.746;2023-04-03T16:30:17;3.00;;;2.30;;
13327;SDS011;6733;51.044;3.746;2023-04-03T16:32:43;3.47;;;2.27;;
13327;SDS011;6733;51.044;3.746;2023-04-03T16:35:10;3.73;;;1.90;;
13327;SDS011;6733;51.044;3.746;2023-04-03T16:37:37;2.43;;;1.83;;
13327;SDS011;6733;51.044;3.746;2023-04-03T16:40:05;6.07;;;1.93;;
13327;SDS011;6733;51.044;3.746;2023-04-03T16:42:32;2.83;;;1.90;;
13327;SDS011;6733;51.044;3.746;2023-04-03T16:44:58;3.63;;;2.10;;
13327;SDS011;6733;51.044;3.746;2023-04-03T16:47:28;3.80;;;2.17;;
13327;SDS011;6733;51.044;3.746;2023-04-03T16:49:54;3.13;;;1.97;;
13327;SDS011;6733;51.044;3.746;2023-04-03T16:52:20;3.30;;;2.10;;
13327;SDS011;6733;51.044;3.746;2023-04-03T16:54:46;2.63;;;1.90;;
13327;SDS011;6733;51.044;3.746;2023-04-03T16:57:13;2.20;;;2.00;;
13327;SDS011;6733;51.044;3.746;2023-04-03T16:59:39;2.13;;;1.80;;
13327;SDS011;6733;51.044;3.746;2023-04-03T17:02:05;5.43;;;4.47;;
13327;SDS011;6733;51.044;3.746;2023-04-03T17:04:32;4.60;;;2.60;;
13327;SDS011;6733;51.044;3.746;2023-04-03T17:07:01;3.27;;;2.00;;